sensor_id;sensor_type;location;lat;lon;timestamp;temperature;humidity
16267;DHT22;8241;48.786;9.250;2023-02-04T00:28:52;8.40;99.90
16267;DHT22;8241;48.786;9.250;2023-02-04T00:36:29;8.50;99.90
16267;DHT22;8241;48.786;9.250;2023-02-04T00:55:11;8.40;99.90
16267;DHT22;8241;48.786;9.250;2023-02-04T01:49:40;8.10;99.90
16267;DHT22;8241;48.786;9.250;2023-02-04T01:58:07;8.10;99.90
16267;DHT22;8241;48.786;9.250;2023-02-04T02:04:24;8.10;99.90
16267;DHT22;8241;48.786;9.250;2023-02-04T02:27:59;8.10;99.90
16267;DHT22;8241;48.786;9.250;2023-02-04T03:04:28;8.00;99.90
16267;DHT22;8241;48.786;9.250;2023-02-04T03:34:19;7.90;99.90
16267;DHT22;8241;48.786;9.250;2023-02-04T03:37:13;7.80;99.90
16267;DHT22;8241;48.786;9.250;2023-02-04T03:48:31;7.80;99.90
16267;DHT22;8241;48.786;9.250;2023-02-04T04:10:42;7.80;99.90
16267;DHT22;8241;48.786;9.250;2023-02-04T05:24:56;7.40;99.90
16267;DHT22;8241;48.786;9.250;2023-02-04T05:36:44;7.50;99.90
16267;DHT22;8241;48.786;9.250;2023-02-04T05:43:00;7.50;99.90
16267;DHT22;8241;48.786;9.250;2023-02-04T05:49:49;7.40;99.90
16267;DHT22;8241;48.786;9.250;2023-02-04T05:52:22;7.30;99.90
16267;DHT22;8241;48.786;9.250;2023-02-04T05:54:49;7.40;99.90
16267;DHT22;8241;48.786;9.250;2023-02-04T05:57:16;7.40;99.90
16267;DHT22;8241;48.786;9.250;2023-02-04T05:59:46;7.30;99.90
16267;DHT22;8241;48.786;9.250;2023-02-04T06:02:21;7.30;99.90
16267;DHT22;8241;48.786;9.250;2023-02-04T06:05:34;7.30;99.90
16267;DHT22;8241;48.786;9.250;2023-02-04T06:08:31;7.30;99.90
16267;DHT22;8241;48.786;9.250;2023-02-04T06:19:21;7.30;99.90
16267;DHT22;8241;48.786;9.250;2023-02-04T06:22:42;7.30;99.90
16267;DHT22;8241;48.786;9.250;2023-02-04T06:25:56;7.30;99.90
16267;DHT22;8241;48.786;9.250;2023-02-04T06:40:42;7.30;99.90
16267;DHT22;8241;48.786;9.250;2023-02-04T06:43:09;7.20;99.90
16267;DHT22;8241;48.786;9.250;2023-02-04T06:45:36;7.20;99.90
16267;DHT22;8241;48.786;9.250;2023-02-04T06:48:05;7.20;99.90
16267;DHT22;8241;48.786;9.250;2023-02-04T06:50:35;7.20;99.90
16267;DHT22;8241;48.786;9.250;2023-02-04T06:53:02;7.20;99.90
16267;DHT22;8241;48.786;9.250;2023-02-04T06:55:29;7.20;99.90
16267;DHT22;8241;48.786;9.250;2023-02-04T06:58:00;7.10;99.90
16267;DHT22;8241;48.786;9.250;2023-02-04T07:00:28;7.20;99.90
16267;DHT22;8241;48.786;9.250;2023-02-04T07:02:56;7.20;99.90
16267;DHT22;8241;48.786;9.250;2023-02-04T07:05:38;7.20;99.90
16267;DHT22;8241;48.786;9.250;2023-02-04T07:08:17;7.20;99.90
16267;DHT22;8241;48.786;9.250;2023-02-04T07:10:49;7.10;99.90
16267;DHT22;8241;48.786;9.250;2023-02-04T07:13:46;7.10;99.90
16267;DHT22;8241;48.786;9.250;2023-02-04T07:16:24;7.20;99.90
16267;DHT22;8241;48.786;9.250;2023-02-04T07:18:51;7.20;99.90
16267;DHT22;8241;48.786;9.250;2023-02-04T07:21:21;7.20;99.90
16267;DHT22;8241;48.786;9.250;2023-02-04T07:24:11;7.20;99.90
16267;DHT22;8241;48.786;9.250;2023-02-04T07:26:49;7.20;99.90
16267;DHT22;8241;48.786;9.250;2023-02-04T07:29:21;7.20;99.90
16267;DHT22;8241;48.786;9.250;2023-02-04T07:31:49;7.30;99.90
16267;DHT22;8241;48.786;9.250;2023-02-04T07:34:19;7.20;99.90
16267;DHT22;8241;48.786;9.250;2023-02-04T07:36:50;7.20;99.90
16267;DHT22;8241;48.786;9.250;2023-02-04T07:39:20;7.30;99.90
16267;DHT22;8241;48.786;9.250;2023-02-04T07:41:56;7.30;99.90
16267;DHT22;8241;48.786;9.250;2023-02-04T07:44:37;7.30;99.90
16267;DHT22;8241;48.786;9.250;2023-02-04T07:47:04;7.30;99.90
16267;DHT22;8241;48.786;9.250;2023-02-04T07:49:31;7.30;99.90
16267;DHT22;8241;48.786;9.250;2023-02-04T07:51:58;7.30;99.90
16267;DHT22;8241;48.786;9.250;2023-02-04T07:54:25;7.20;99.90
16267;DHT22;8241;48.786;9.250;2023-02-04T07:56:52;7.20;99.90
16267;DHT22;8241;48.786;9.250;2023-02-04T07:59:18;7.30;99.90
16267;DHT22;8241;48.786;9.250;2023-02-04T08:01:47;7.30;99.90
16267;DHT22;8241;48.786;9.250;2023-02-04T08:04:17;7.30;99.90
16267;DHT22;8241;48.786;9.250;2023-02-04T08:06:45;7.20;99.90
16267;DHT22;8241;48.786;9.250;2023-02-04T08:09:12;7.20;99.90
16267;DHT22;8241;48.786;9.250;2023-02-04T08:11:38;7.30;99.90
16267;DHT22;8241;48.786;9.250;2023-02-04T08:14:05;7.20;99.90
16267;DHT22;8241;48.786;9.250;2023-02-04T08:16:34;7.30;99.90
16267;DHT22;8241;48.786;9.250;2023-02-04T08:19:04;7.30;99.90
16267;DHT22;8241;48.786;9.250;2023-02-04T08:21:31;7.30;99.90
16267;DHT22;8241;48.786;9.250;2023-02-04T08:23:58;7.30;99.90
16267;DHT22;8241;48.786;9.250;2023-02-04T08:26:26;7.30;99.90
16267;DHT22;8241;48.786;9.250;2023-02-04T08:28:54;7.30;99.90
16267;DHT22;8241;48.786;9.250;2023-02-04T08:31:21;7.30;99.90
16267;DHT22;8241;48.786;9.250;2023-02-04T08:33:52;7.30;99.90
16267;DHT22;8241;48.786;9.250;2023-02-04T08:36:20;7.30;99.90
16267;DHT22;8241;48.786;9.250;2023-02-04T08:38:47;7.30;99.90
16267;DHT22;8241;48.786;9.250;2023-02-04T08:41:14;7.30;99.90
16267;DHT22;8241;48.786;9.250;2023-02-04T08:43:43;7.30;99.90
16267;DHT22;8241;48.786;9.250;2023-02-04T08:46:12;7.30;99.90
16267;DHT22;8241;48.786;9.250;2023-02-04T08:48:40;7.40;99.90
16267;DHT22;8241;48.786;9.250;2023-02-04T08:51:08;7.40;99.90
16267;DHT22;8241;48.786;9.250;2023-02-04T08:53:39;7.40;99.90
16267;DHT22;8241;48.786;9.250;2023-02-04T08:56:29;7.40;99.90
16267;DHT22;8241;48.786;9.250;2023-02-04T08:58:56;7.40;99.90
16267;DHT22;8241;48.786;9.250;2023-02-04T09:01:23;7.40;99.90
16267;DHT22;8241;48.786;9.250;2023-02-04T09:03:51;7.40;99.90
16267;DHT22;8241;48.786;9.250;2023-02-04T09:06:18;7.50;99.90
16267;DHT22;8241;48.786;9.250;2023-02-04T09:08:47;7.50;99.90
16267;DHT22;8241;48.786;9.250;2023-02-04T09:11:15;7.50;99.90
16267;DHT22;8241;48.786;9.250;2023-02-04T09:13:42;7.60;99.90
16267;DHT22;8241;48.786;9.250;2023-02-04T09:16:09;7.60;99.90
16267;DHT22;8241;48.786;9.250;2023-02-04T09:18:36;7.70;99.90
16267;DHT22;8241;48.786;9.250;2023-02-04T09:21:04;7.70;99.90
16267;DHT22;8241;48.786;9.250;2023-02-04T09:23:52;7.70;99.90
16267;DHT22;8241;48.786;9.250;2023-02-04T09:26:19;7.60;99.90
16267;DHT22;8241;48.786;9.250;2023-02-04T09:29:04;7.60;99.90
16267;DHT22;8241;48.786;9.250;2023-02-04T09:31:33;7.70;99.90
16267;DHT22;8241;48.786;9.250;2023-02-04T09:34:00;7.80;99.90
16267;DHT22;8241;48.786;9.250;2023-02-04T09:36:28;7.90;99.90
16267;DHT22;8241;48.786;9.250;2023-02-04T09:39:08;7.90;99.90
16267;DHT22;8241;48.786;9.250;2023-02-04T09:41:50;7.90;99.90
16267;DHT22;8241;48.786;9.250;2023-02-04T09:44:40;7.90;99.90
16267;DHT22;8241;48.786;9.250;2023-02-04T09:47:10;8.00;99.90
16267;DHT22;8241;48.786;9.250;2023-02-04T09:49:42;8.00;99.90
16267;DHT22;8241;48.786;9.250;2023-02-04T09:52:22;8.00;99.90
16267;DHT22;8241;48.786;9.250;2023-02-04T09:54:53;8.20;99.90
16267;DHT22;8241;48.786;9.250;2023-02-04T09:57:33;8.30;99.90
16267;DHT22;8241;48.786;9.250;2023-02-04T10:00:20;8.40;99.90
16267;DHT22;8241;48.786;9.250;2023-02-04T10:02:59;8.50;99.90
16267;DHT22;8241;48.786;9.250;2023-02-04T10:05:28;8.50;99.90
16267;DHT22;8241;48.786;9.250;2023-02-04T10:07:57;8.50;99.90
16267;DHT22;8241;48.786;9.250;2023-02-04T10:10:26;8.60;99.90
16267;DHT22;8241;48.786;9.250;2023-02-04T10:13:15;8.70;99.90
16267;DHT22;8241;48.786;9.250;2023-02-04T10:16:01;8.70;99.90
16267;DHT22;8241;48.786;9.250;2023-02-04T10:18:31;8.60;99.90
16267;DHT22;8241;48.786;9.250;2023-02-04T10:21:10;8.60;99.90
16267;DHT22;8241;48.786;9.250;2023-02-04T10:23:39;8.60;99.90
16267;DHT22;8241;48.786;9.250;2023-02-04T10:26:11;8.60;99.90
16267;DHT22;8241;48.786;9.250;2023-02-04T10:28:41;8.40;99.90
16267;DHT22;8241;48.786;9.250;2023-02-04T10:31:29;8.40;99.90
16267;DHT22;8241;48.786;9.250;2023-02-04T10:34:22;8.30;99.90
16267;DHT22;8241;48.786;9.250;2023-02-04T10:36:51;8.30;99.90
16267;DHT22;8241;48.786;9.250;2023-02-04T10:39:22;8.20;99.90
16267;DHT22;8241;48.786;9.250;2023-02-04T10:41:51;8.20;99.90
16267;DHT22;8241;48.786;9.250;2023-02-04T10:44:25;8.20;99.90
16267;DHT22;8241;48.786;9.250;2023-02-04T10:47:15;8.10;99.90
16267;DHT22;8241;48.786;9.250;2023-02-04T10:49:51;8.20;99.90
16267;DHT22;8241;48.786;9.250;2023-02-04T10:52:23;8.10;99.90
16267;DHT22;8241;48.786;9.250;2023-02-04T10:54:51;8.10;99.90
16267;DHT22;8241;48.786;9.250;2023-02-04T10:57:22;8.10;99.90
16267;DHT22;8241;48.786;9.250;2023-02-04T10:59:50;8.10;99.90
16267;DHT22;8241;48.786;9.250;2023-02-04T11:02:41;8.10;99.90
16267;DHT22;8241;48.786;9.250;2023-02-04T11:05:14;8.20;99.90
16267;DHT22;8241;48.786;9.250;2023-02-04T11:07:44;8.20;99.90
16267;DHT22;8241;48.786;9.250;2023-02-04T11:10:18;8.40;99.90
16267;DHT22;8241;48.786;9.250;2023-02-04T11:13:22;8.90;99.90
16267;DHT22;8241;48.786;9.250;2023-02-04T11:16:05;9.30;99.90
16267;DHT22;8241;48.786;9.250;2023-02-04T11:18:43;9.80;99.90
16267;DHT22;8241;48.786;9.250;2023-02-04T11:21:19;10.20;98.60
16267;DHT22;8241;48.786;9.250;2023-02-04T11:23:49;10.30;98.70
16267;DHT22;8241;48.786;9.250;2023-02-04T11:26:17;10.30;98.20
16267;DHT22;8241;48.786;9.250;2023-02-04T11:28:55;10.30;98.30
16267;DHT22;8241;48.786;9.250;2023-02-04T11:31:54;10.20;98.50
16267;DHT22;8241;48.786;9.250;2023-02-04T11:34:28;10.10;98.90
16267;DHT22;8241;48.786;9.250;2023-02-04T11:37:09;9.90;99.10
16267;DHT22;8241;48.786;9.250;2023-02-04T11:46:35;9.40;99.60
16267;DHT22;8241;48.786;9.250;2023-02-04T11:49:02;9.30;99.50
16267;DHT22;8241;48.786;9.250;2023-02-04T11:51:31;9.10;99.90
16267;DHT22;8241;48.786;9.250;2023-02-04T11:53:58;9.00;99.70
16267;DHT22;8241;48.786;9.250;2023-02-04T11:56:30;8.90;99.70
16267;DHT22;8241;48.786;9.250;2023-02-04T11:58:58;8.80;99.90
16267;DHT22;8241;48.786;9.250;2023-02-04T12:01:30;8.90;99.90
16267;DHT22;8241;48.786;9.250;2023-02-04T12:04:21;8.90;99.50
16267;DHT22;8241;48.786;9.250;2023-02-04T12:06:57;9.00;99.40
16267;DHT22;8241;48.786;9.250;2023-02-04T12:09:52;9.00;99.50
16267;DHT22;8241;48.786;9.250;2023-02-04T12:12:30;9.00;99.20
16267;DHT22;8241;48.786;9.250;2023-02-04T12:15:13;9.20;99.30
16267;DHT22;8241;48.786;9.250;2023-02-04T12:17:43;9.40;98.90
16267;DHT22;8241;48.786;9.250;2023-02-04T12:20:16;9.50;99.00
16267;DHT22;8241;48.786;9.250;2023-02-04T12:22:43;9.50;98.80
16267;DHT22;8241;48.786;9.250;2023-02-04T12:25:14;9.70;99.20
16267;DHT22;8241;48.786;9.250;2023-02-04T12:28:09;10.10;98.40
16267;DHT22;8241;48.786;9.250;2023-02-04T12:30:59;10.50;97.30
16267;DHT22;8241;48.786;9.250;2023-02-04T12:33:26;10.70;96.80
16267;DHT22;8241;48.786;9.250;2023-02-04T12:35:55;10.80;96.00
16267;DHT22;8241;48.786;9.250;2023-02-04T12:38:21;10.40;96.80
16267;DHT22;8241;48.786;9.250;2023-02-04T12:40:56;10.40;96.40
16267;DHT22;8241;48.786;9.250;2023-02-04T12:43:23;10.10;97.20
16267;DHT22;8241;48.786;9.250;2023-02-04T12:45:50;9.90;97.00
16267;DHT22;8241;48.786;9.250;2023-02-04T12:48:17;9.60;97.40
16267;DHT22;8241;48.786;9.250;2023-02-04T12:50:44;9.50;97.70
16267;DHT22;8241;48.786;9.250;2023-02-04T12:53:12;9.40;97.80
16267;DHT22;8241;48.786;9.250;2023-02-04T12:58:32;9.40;97.40
16267;DHT22;8241;48.786;9.250;2023-02-04T13:00:59;9.30;97.30
16267;DHT22;8241;48.786;9.250;2023-02-04T13:03:26;9.30;97.30
16267;DHT22;8241;48.786;9.250;2023-02-04T13:05:53;9.20;97.20
16267;DHT22;8241;48.786;9.250;2023-02-04T13:08:23;9.30;97.60
16267;DHT22;8241;48.786;9.250;2023-02-04T13:10:55;9.40;98.00
16267;DHT22;8241;48.786;9.250;2023-02-04T13:13:22;9.50;97.70
16267;DHT22;8241;48.786;9.250;2023-02-04T13:15:49;9.40;97.40
16267;DHT22;8241;48.786;9.250;2023-02-04T13:18:16;9.30;97.40
16267;DHT22;8241;48.786;9.250;2023-02-04T13:20:44;9.30;97.70
16267;DHT22;8241;48.786;9.250;2023-02-04T13:23:26;9.20;98.00
16267;DHT22;8241;48.786;9.250;2023-02-04T13:25:53;9.30;98.00
16267;DHT22;8241;48.786;9.250;2023-02-04T13:28:20;9.30;98.40
16267;DHT22;8241;48.786;9.250;2023-02-04T13:30:47;9.40;98.20
16267;DHT22;8241;48.786;9.250;2023-02-04T13:33:14;9.40;97.60
16267;DHT22;8241;48.786;9.250;2023-02-04T13:35:41;9.50;97.10
16267;DHT22;8241;48.786;9.250;2023-02-04T13:38:10;9.40;96.90
16267;DHT22;8241;48.786;9.250;2023-02-04T13:40:39;9.40;96.80
16267;DHT22;8241;48.786;9.250;2023-02-04T13:43:09;9.40;96.50
16267;DHT22;8241;48.786;9.250;2023-02-04T13:45:36;9.50;96.10
16267;DHT22;8241;48.786;9.250;2023-02-04T13:48:03;9.40;95.40
16267;DHT22;8241;48.786;9.250;2023-02-04T13:50:30;9.60;95.50
16267;DHT22;8241;48.786;9.250;2023-02-04T13:52:57;9.80;95.40
16267;DHT22;8241;48.786;9.250;2023-02-04T13:55:24;9.70;95.80
16267;DHT22;8241;48.786;9.250;2023-02-04T13:57:52;9.60;96.40
16267;DHT22;8241;48.786;9.250;2023-02-04T14:00:19;9.60;96.20
16267;DHT22;8241;48.786;9.250;2023-02-04T14:02:46;9.50;96.50
16267;DHT22;8241;48.786;9.250;2023-02-04T14:05:14;9.30;96.70
16267;DHT22;8241;48.786;9.250;2023-02-04T14:07:41;9.40;96.90
16267;DHT22;8241;48.786;9.250;2023-02-04T14:10:08;9.20;97.00
16267;DHT22;8241;48.786;9.250;2023-02-04T14:12:35;9.20;96.70
16267;DHT22;8241;48.786;9.250;2023-02-04T14:15:03;9.20;96.80
16267;DHT22;8241;48.786;9.250;2023-02-04T14:17:30;9.10;97.00
16267;DHT22;8241;48.786;9.250;2023-02-04T14:19:57;9.20;97.00
16267;DHT22;8241;48.786;9.250;2023-02-04T14:22:24;9.10;97.10
16267;DHT22;8241;48.786;9.250;2023-02-04T14:24:51;9.10;97.20
16267;DHT22;8241;48.786;9.250;2023-02-04T14:27:18;9.10;97.10
16267;DHT22;8241;48.786;9.250;2023-02-04T14:29:44;9.30;96.80
16267;DHT22;8241;48.786;9.250;2023-02-04T14:32:13;9.20;97.00
16267;DHT22;8241;48.786;9.250;2023-02-04T14:34:45;9.20;97.00
16267;DHT22;8241;48.786;9.250;2023-02-04T14:37:12;9.30;96.40
16267;DHT22;8241;48.786;9.250;2023-02-04T14:39:39;9.30;96.60
16267;DHT22;8241;48.786;9.250;2023-02-04T14:42:06;9.40;96.40
16267;DHT22;8241;48.786;9.250;2023-02-04T14:44:33;9.40;96.10
16267;DHT22;8241;48.786;9.250;2023-02-04T14:46:59;9.40;95.90
16267;DHT22;8241;48.786;9.250;2023-02-04T14:49:28;9.40;95.80
16267;DHT22;8241;48.786;9.250;2023-02-04T14:51:55;9.40;95.80
16267;DHT22;8241;48.786;9.250;2023-02-04T14:54:22;9.60;95.20
16267;DHT22;8241;48.786;9.250;2023-02-04T14:57:00;9.70;95.30
16267;DHT22;8241;48.786;9.250;2023-02-04T14:59:32;9.80;95.20
16267;DHT22;8241;48.786;9.250;2023-02-04T15:01:59;9.90;95.10
16267;DHT22;8241;48.786;9.250;2023-02-04T15:04:27;10.00;95.00
16267;DHT22;8241;48.786;9.250;2023-02-04T15:06:54;9.90;94.70
16267;DHT22;8241;48.786;9.250;2023-02-04T15:09:22;9.90;94.90
16267;DHT22;8241;48.786;9.250;2023-02-04T15:11:50;9.90;94.80
16267;DHT22;8241;48.786;9.250;2023-02-04T15:14:17;9.90;94.80
16267;DHT22;8241;48.786;9.250;2023-02-04T15:16:45;9.90;95.10
16267;DHT22;8241;48.786;9.250;2023-02-04T15:19:14;9.80;94.80
16267;DHT22;8241;48.786;9.250;2023-02-04T15:21:42;9.60;95.20
16267;DHT22;8241;48.786;9.250;2023-02-04T15:24:11;9.60;95.40
16267;DHT22;8241;48.786;9.250;2023-02-04T15:26:38;9.40;95.50
16267;DHT22;8241;48.786;9.250;2023-02-04T15:29:08;9.30;95.60
16267;DHT22;8241;48.786;9.250;2023-02-04T15:31:35;9.20;95.70
16267;DHT22;8241;48.786;9.250;2023-02-04T15:34:02;9.10;95.90
16267;DHT22;8241;48.786;9.250;2023-02-04T15:36:29;9.00;96.00
16267;DHT22;8241;48.786;9.250;2023-02-04T15:38:57;8.90;96.20
16267;DHT22;8241;48.786;9.250;2023-02-04T15:41:34;8.90;95.90
16267;DHT22;8241;48.786;9.250;2023-02-04T15:44:16;9.00;95.90
16267;DHT22;8241;48.786;9.250;2023-02-04T15:46:46;8.80;95.90
16267;DHT22;8241;48.786;9.250;2023-02-04T15:49:14;8.70;96.00
16267;DHT22;8241;48.786;9.250;2023-02-04T15:51:48;8.70;96.20
16267;DHT22;8241;48.786;9.250;2023-02-04T15:54:23;8.60;96.50
16267;DHT22;8241;48.786;9.250;2023-02-04T15:56:49;8.60;96.90
16267;DHT22;8241;48.786;9.250;2023-02-04T15:59:16;8.50;96.60
16267;DHT22;8241;48.786;9.250;2023-02-04T16:01:44;8.40;96.90
16267;DHT22;8241;48.786;9.250;2023-02-04T16:04:11;8.30;97.10
16267;DHT22;8241;48.786;9.250;2023-02-04T16:06:38;8.30;97.30
16267;DHT22;8241;48.786;9.250;2023-02-04T16:09:05;8.30;97.20
16267;DHT22;8241;48.786;9.250;2023-02-04T16:11:33;8.30;97.20
16267;DHT22;8241;48.786;9.250;2023-02-04T16:14:02;8.30;97.40
16267;DHT22;8241;48.786;9.250;2023-02-04T16:16:29;8.30;97.40
16267;DHT22;8241;48.786;9.250;2023-02-04T16:18:56;8.30;97.60
16267;DHT22;8241;48.786;9.250;2023-02-04T16:21:33;8.20;97.70
16267;DHT22;8241;48.786;9.250;2023-02-04T16:27:19;8.10;98.00
16267;DHT22;8241;48.786;9.250;2023-02-04T16:29:46;8.00;98.10
16267;DHT22;8241;48.786;9.250;2023-02-04T16:32:13;8.00;98.50
16267;DHT22;8241;48.786;9.250;2023-02-04T16:34:40;8.00;98.70
16267;DHT22;8241;48.786;9.250;2023-02-04T16:37:07;7.90;98.90
16267;DHT22;8241;48.786;9.250;2023-02-04T16:39:34;7.80;99.30
16267;DHT22;8241;48.786;9.250;2023-02-04T16:42:03;7.90;99.40
16267;DHT22;8241;48.786;9.250;2023-02-04T16:44:35;7.90;99.50
16267;DHT22;8241;48.786;9.250;2023-02-04T16:47:02;7.90;99.60
16267;DHT22;8241;48.786;9.250;2023-02-04T16:49:29;7.80;99.80
16267;DHT22;8241;48.786;9.250;2023-02-04T16:51:56;7.80;99.80
16267;DHT22;8241;48.786;9.250;2023-02-04T16:54:23;7.70;99.90
16267;DHT22;8241;48.786;9.250;2023-02-04T16:57:09;7.80;99.90
16267;DHT22;8241;48.786;9.250;2023-02-04T16:59:53;7.70;99.90
16267;DHT22;8241;48.786;9.250;2023-02-04T17:02:32;7.70;99.90
16267;DHT22;8241;48.786;9.250;2023-02-04T17:05:11;7.70;99.90
16267;DHT22;8241;48.786;9.250;2023-02-04T17:07:38;7.70;99.90
16267;DHT22;8241;48.786;9.250;2023-02-04T17:10:05;7.60;99.90
16267;DHT22;8241;48.786;9.250;2023-02-04T17:12:32;7.60;99.90
16267;DHT22;8241;48.786;9.250;2023-02-04T17:15:00;7.50;99.90
16267;DHT22;8241;48.786;9.250;2023-02-04T17:17:27;7.50;99.90
16267;DHT22;8241;48.786;9.250;2023-02-04T17:19:54;7.50;99.90
16267;DHT22;8241;48.786;9.250;2023-02-04T17:22:32;7.50;99.90
16267;DHT22;8241;48.786;9.250;2023-02-04T17:24:59;7.60;99.90
16267;DHT22;8241;48.786;9.250;2023-02-04T17:27:27;7.50;99.80
16267;DHT22;8241;48.786;9.250;2023-02-04T17:29:54;7.40;99.90
16267;DHT22;8241;48.786;9.250;2023-02-04T17:32:22;7.30;99.90
16267;DHT22;8241;48.786;9.250;2023-02-04T17:34:49;7.40;99.90
16267;DHT22;8241;48.786;9.250;2023-02-04T17:37:37;7.50;99.90
16267;DHT22;8241;48.786;9.250;2023-02-04T17:40:05;7.40;99.90
16267;DHT22;8241;48.786;9.250;2023-02-04T17:42:34;7.30;99.90
16267;DHT22;8241;48.786;9.250;2023-02-04T17:45:01;7.20;99.90
16267;DHT22;8241;48.786;9.250;2023-02-04T17:47:29;7.20;99.90
16267;DHT22;8241;48.786;9.250;2023-02-04T17:49:56;7.20;99.90
16267;DHT22;8241;48.786;9.250;2023-02-04T17:52:41;7.10;99.90
16267;DHT22;8241;48.786;9.250;2023-02-04T17:55:16;6.90;99.90
16267;DHT22;8241;48.786;9.250;2023-02-04T17:57:52;7.00;99.90
16267;DHT22;8241;48.786;9.250;2023-02-04T18:00:22;6.70;99.90
16267;DHT22;8241;48.786;9.250;2023-02-04T18:02:51;6.60;99.90
16267;DHT22;8241;48.786;9.250;2023-02-04T18:05:42;6.60;99.90
16267;DHT22;8241;48.786;9.250;2023-02-04T18:08:20;6.50;99.90
16267;DHT22;8241;48.786;9.250;2023-02-04T18:10:50;6.70;99.90
16267;DHT22;8241;48.786;9.250;2023-02-04T18:13:20;6.80;99.90
16267;DHT22;8241;48.786;9.250;2023-02-04T18:15:51;6.90;99.90
16267;DHT22;8241;48.786;9.250;2023-02-04T18:18:23;6.80;99.90
16267;DHT22;8241;48.786;9.250;2023-02-04T18:20:56;6.80;99.90
16267;DHT22;8241;48.786;9.250;2023-02-04T18:23:31;6.60;99.90
16267;DHT22;8241;48.786;9.250;2023-02-04T18:26:08;6.60;99.90
16267;DHT22;8241;48.786;9.250;2023-02-04T18:28:37;6.50;99.90
16267;DHT22;8241;48.786;9.250;2023-02-04T18:31:30;6.50;99.90
16267;DHT22;8241;48.786;9.250;2023-02-04T18:34:00;6.50;99.90
16267;DHT22;8241;48.786;9.250;2023-02-04T18:36:28;6.70;99.90
16267;DHT22;8241;48.786;9.250;2023-02-04T18:38:57;6.70;99.90
16267;DHT22;8241;48.786;9.250;2023-02-04T18:41:27;6.50;99.90
16267;DHT22;8241;48.786;9.250;2023-02-04T18:44:20;6.50;99.90
16267;DHT22;8241;48.786;9.250;2023-02-04T18:46:49;6.40;99.90
16267;DHT22;8241;48.786;9.250;2023-02-04T18:49:25;6.30;99.90
16267;DHT22;8241;48.786;9.250;2023-02-04T18:51:54;6.10;99.90
16267;DHT22;8241;48.786;9.250;2023-02-04T18:54:40;6.10;99.90
16267;DHT22;8241;48.786;9.250;2023-02-04T18:57:25;6.20;99.90
16267;DHT22;8241;48.786;9.250;2023-02-04T19:00:25;6.20;99.90
16267;DHT22;8241;48.786;9.250;2023-02-04T19:02:57;6.20;99.90
16267;DHT22;8241;48.786;9.250;2023-02-04T19:05:44;6.10;99.90
16267;DHT22;8241;48.786;9.250;2023-02-04T19:08:26;6.20;99.90
16267;DHT22;8241;48.786;9.250;2023-02-04T19:10:56;6.10;99.90
16267;DHT22;8241;48.786;9.250;2023-02-04T19:13:34;6.10;99.90
16267;DHT22;8241;48.786;9.250;2023-02-04T19:16:04;5.90;99.90
16267;DHT22;8241;48.786;9.250;2023-02-04T19:18:39;5.90;99.90
16267;DHT22;8241;48.786;9.250;2023-02-04T19:21:29;6.00;99.90
16267;DHT22;8241;48.786;9.250;2023-02-04T19:24:07;6.00;99.90
16267;DHT22;8241;48.786;9.250;2023-02-04T19:26:52;6.10;99.90
16267;DHT22;8241;48.786;9.250;2023-02-04T19:33:14;5.80;99.90
16267;DHT22;8241;48.786;9.250;2023-02-04T19:35:44;5.70;99.90
16267;DHT22;8241;48.786;9.250;2023-02-04T19:38:36;5.70;99.90
16267;DHT22;8241;48.786;9.250;2023-02-04T19:41:22;5.70;99.90
16267;DHT22;8241;48.786;9.250;2023-02-04T19:43:56;5.60;99.90
16267;DHT22;8241;48.786;9.250;2023-02-04T19:46:24;5.80;99.90
16267;DHT22;8241;48.786;9.250;2023-02-04T19:48:57;5.70;99.90
16267;DHT22;8241;48.786;9.250;2023-02-04T19:51:34;5.60;99.90
16267;DHT22;8241;48.786;9.250;2023-02-04T19:54:15;5.80;99.90
16267;DHT22;8241;48.786;9.250;2023-02-04T19:56:50;5.80;99.90
16267;DHT22;8241;48.786;9.250;2023-02-04T19:59:26;5.70;99.90
16267;DHT22;8241;48.786;9.250;2023-02-04T20:02:25;5.80;99.90
16267;DHT22;8241;48.786;9.250;2023-02-04T20:05:15;5.60;99.90
16267;DHT22;8241;48.786;9.250;2023-02-04T20:07:44;5.60;99.90
16267;DHT22;8241;48.786;9.250;2023-02-04T20:10:22;5.70;99.90
16267;DHT22;8241;48.786;9.250;2023-02-04T20:12:51;5.80;99.90
16267;DHT22;8241;48.786;9.250;2023-02-04T20:15:21;5.80;99.90
16267;DHT22;8241;48.786;9.250;2023-02-04T20:17:49;5.70;99.90
16267;DHT22;8241;48.786;9.250;2023-02-04T20:20:23;5.40;99.90
16267;DHT22;8241;48.786;9.250;2023-02-04T20:22:53;5.20;99.90
16267;DHT22;8241;48.786;9.250;2023-02-04T20:25:42;5.00;99.90
16267;DHT22;8241;48.786;9.250;2023-02-04T20:28:35;5.00;99.90
16267;DHT22;8241;48.786;9.250;2023-02-04T20:33:54;4.80;99.90
16267;DHT22;8241;48.786;9.250;2023-02-04T20:36:36;4.80;99.90
16267;DHT22;8241;48.786;9.250;2023-02-04T20:39:36;4.80;99.90
16267;DHT22;8241;48.786;9.250;2023-02-04T20:42:26;5.10;99.90
16267;DHT22;8241;48.786;9.250;2023-02-04T20:44:54;5.20;99.90
16267;DHT22;8241;48.786;9.250;2023-02-04T20:47:23;5.20;99.90
16267;DHT22;8241;48.786;9.250;2023-02-04T20:49:52;5.00;99.90
16267;DHT22;8241;48.786;9.250;2023-02-04T20:55:34;4.80;99.90
16267;DHT22;8241;48.786;9.250;2023-02-04T20:58:15;4.90;99.90
16267;DHT22;8241;48.786;9.250;2023-02-04T21:00:43;5.00;99.90
16267;DHT22;8241;48.786;9.250;2023-02-04T21:03:24;5.10;99.90
16267;DHT22;8241;48.786;9.250;2023-02-04T21:05:53;4.90;99.90
16267;DHT22;8241;48.786;9.250;2023-02-04T21:08:33;4.70;99.90
16267;DHT22;8241;48.786;9.250;2023-02-04T21:11:00;4.60;99.90
16267;DHT22;8241;48.786;9.250;2023-02-04T21:13:32;4.90;99.90
16267;DHT22;8241;48.786;9.250;2023-02-04T21:15:59;4.90;99.90
16267;DHT22;8241;48.786;9.250;2023-02-04T21:18:29;5.00;99.90
16267;DHT22;8241;48.786;9.250;2023-02-04T21:20:58;5.00;99.90
16267;DHT22;8241;48.786;9.250;2023-02-04T21:23:26;5.10;99.90
16267;DHT22;8241;48.786;9.250;2023-02-04T21:25:53;5.10;99.90
16267;DHT22;8241;48.786;9.250;2023-02-04T21:28:20;5.00;99.90
16267;DHT22;8241;48.786;9.250;2023-02-04T21:30:48;4.80;99.90
16267;DHT22;8241;48.786;9.250;2023-02-04T21:33:16;4.70;99.90
16267;DHT22;8241;48.786;9.250;2023-02-04T21:35:43;4.60;99.90
16267;DHT22;8241;48.786;9.250;2023-02-04T21:38:10;4.40;99.90
16267;DHT22;8241;48.786;9.250;2023-02-04T21:40:37;4.40;99.90
16267;DHT22;8241;48.786;9.250;2023-02-04T21:43:05;4.40;99.90
16267;DHT22;8241;48.786;9.250;2023-02-04T21:45:33;4.30;99.90
16267;DHT22;8241;48.786;9.250;2023-02-04T21:48:04;4.40;99.90
16267;DHT22;8241;48.786;9.250;2023-02-04T21:50:32;4.30;99.90
16267;DHT22;8241;48.786;9.250;2023-02-04T21:52:59;4.40;99.90
16267;DHT22;8241;48.786;9.250;2023-02-04T21:55:26;4.40;99.90
16267;DHT22;8241;48.786;9.250;2023-02-04T21:57:54;4.50;99.90
16267;DHT22;8241;48.786;9.250;2023-02-04T22:00:22;4.40;99.90
16267;DHT22;8241;48.786;9.250;2023-02-04T22:02:49;4.20;99.90
16267;DHT22;8241;48.786;9.250;2023-02-04T22:05:18;4.10;99.90
16267;DHT22;8241;48.786;9.250;2023-02-04T22:07:45;4.10;99.90
16267;DHT22;8241;48.786;9.250;2023-02-04T22:10:14;4.10;99.90
16267;DHT22;8241;48.786;9.250;2023-02-04T22:12:41;4.10;99.90
16267;DHT22;8241;48.786;9.250;2023-02-04T22:15:09;4.20;99.90
16267;DHT22;8241;48.786;9.250;2023-02-04T22:17:36;4.30;99.90
16267;DHT22;8241;48.786;9.250;2023-02-04T22:20:03;4.40;99.90
16267;DHT22;8241;48.786;9.250;2023-02-04T22:22:32;4.30;99.90
16267;DHT22;8241;48.786;9.250;2023-02-04T22:24:59;4.30;99.90
16267;DHT22;8241;48.786;9.250;2023-02-04T22:27:26;4.40;99.90
16267;DHT22;8241;48.786;9.250;2023-02-04T22:29:54;4.50;99.90